createdAt,value
2022-11-24T00:01:47.553Z,95625.56
2022-11-24T00:04:16.331Z,95609.78
2022-11-24T00:06:44.844Z,95622.31
2022-11-24T00:09:15.217Z,95631.75
2022-11-24T00:11:44.573Z,95630.75
2022-11-24T00:14:14.197Z,95637.75
2022-11-24T00:16:42.745Z,95634.81
2022-11-24T00:19:17.057Z,95631.91
2022-11-24T00:21:48.806Z,95606.75
2022-11-24T00:24:19.286Z,95626.09
2022-11-24T00:26:48.125Z,95636.13
2022-11-24T00:29:17.155Z,95633.81
2022-11-24T00:31:46.371Z,95624.31
2022-11-24T00:34:15.755Z,95638.56
2022-11-24T00:36:45.236Z,95633.19
2022-11-24T00:39:15.413Z,95636.84
2022-11-24T00:41:46.362Z,95649.22
2022-11-24T00:44:14.765Z,95654.38
2022-11-24T00:46:43.896Z,95652.88
2022-11-24T00:49:12.860Z,95661.06
2022-11-24T00:51:41.333Z,95672.41
2022-11-24T00:54:10.220Z,95668.41
2022-11-24T00:56:39.068Z,95669.47
2022-11-24T00:59:09.113Z,95686.09
2022-11-24T01:01:38.072Z,95686.31
2022-11-24T01:04:07.611Z,95688.19
2022-11-24T01:06:37.492Z,95699.22
2022-11-24T01:09:06.794Z,95704.13
2022-11-24T01:11:51.371Z,95715.22
2022-11-24T01:14:22.812Z,95702.16
2022-11-24T01:16:51.493Z,95711.41
2022-11-24T01:19:20.905Z,95718.44
2022-11-24T01:21:50.051Z,95693.00
2022-11-24T01:24:18.721Z,95716.78
2022-11-24T01:26:47.726Z,95731.88
2022-11-24T01:29:16.924Z,95740.75
2022-11-24T01:31:47.386Z,95738.31
2022-11-24T01:34:16.091Z,95749.06
2022-11-24T01:36:45.507Z,95753.59
2022-11-24T01:39:14.429Z,95751.53
2022-11-24T01:41:43.116Z,95767.66
2022-11-24T01:44:26.649Z,95766.84
2022-11-24T01:46:59.979Z,95756.09
2022-11-24T01:49:39.184Z,95758.31
2022-11-24T01:52:11.694Z,95771.53
2022-11-24T01:54:45.694Z,95762.38
2022-11-24T01:57:19.266Z,95781.59
2022-11-24T01:59:52.521Z,95771.41
2022-11-24T02:02:30.519Z,95778.31
2022-11-24T02:05:04.309Z,95784.19
2022-11-24T02:07:34.180Z,95776.47
2022-11-24T02:10:08.521Z,95785.13
2022-11-24T02:12:38.915Z,95784.31
2022-11-24T02:15:10.744Z,95796.72
2022-11-24T02:17:40.942Z,95766.38
2022-11-24T02:20:12.581Z,95791.09
2022-11-24T02:22:49.034Z,95798.69
2022-11-24T02:25:29.126Z,95792.25
2022-11-24T02:28:01.247Z,95802.22
2022-11-24T02:30:30.795Z,95804.47
2022-11-24T02:33:00.097Z,95807.38
2022-11-24T02:35:29.600Z,95819.31
2022-11-24T02:37:58.078Z,95813.69
2022-11-24T02:40:31.585Z,95818.88
2022-11-24T02:43:06.388Z,95819.69
2022-11-24T02:45:35.736Z,95824.47
2022-11-24T02:48:05.068Z,95825.75
2022-11-24T02:50:34.119Z,95829.41
2022-11-24T02:53:02.686Z,95829.97
2022-11-24T02:55:32.074Z,95834.91
2022-11-24T02:58:01.943Z,95835.13
2022-11-24T03:00:31.444Z,95844.72
2022-11-24T03:03:00.289Z,95833.72
2022-11-24T03:05:29.340Z,95838.06
2022-11-24T03:07:58.899Z,95839.44
2022-11-24T03:10:28.936Z,95846.94
2022-11-24T03:12:57.724Z,95855.59
2022-11-24T03:15:27.920Z,95852.19
2022-11-24T03:17:58.031Z,95862.84
2022-11-24T03:20:27.648Z,95869.06
2022-11-24T03:22:56.106Z,95863.09
2022-11-24T03:25:25.622Z,95865.34
2022-11-24T03:27:57.112Z,95866.38
2022-11-24T03:30:27.697Z,95868.84
2022-11-24T03:32:56.205Z,95867.66
2022-11-24T03:35:26.511Z,95871.75
2022-11-24T03:37:55.469Z,95884.63
2022-11-24T03:40:24.056Z,95884.63
2022-11-24T03:42:53.786Z,95887.31
2022-11-24T03:45:44.786Z,95894.81
2022-11-24T03:48:13.031Z,95897.50
2022-11-24T03:50:42.288Z,95894.81
2022-11-24T03:53:11.141Z,95910.00
2022-11-24T03:55:39.651Z,95904.38
2022-11-24T03:58:08.909Z,95897.38
2022-11-24T04:00:37.915Z,95905.22
2022-11-24T04:03:06.396Z,95906.88
2022-11-24T04:05:37.480Z,95918.22
2022-11-24T04:08:06.580Z,95920.91
2022-11-24T04:10:37.691Z,95918.81
2022-11-24T04:13:11.673Z,95915.53
2022-11-24T04:15:42.141Z,95915.78
2022-11-24T04:18:12.474Z,95912.59
2022-11-24T04:20:43.043Z,95915.28
2022-11-24T04:23:12.672Z,95924.66
2022-11-24T04:25:43.397Z,95918.47
2022-11-24T04:28:13.965Z,95931.69
2022-11-24T04:30:44.725Z,95930.25
2022-11-24T04:33:14.645Z,95936.56
2022-11-24T04:35:44.445Z,95932.69
2022-11-24T04:38:13.565Z,95930.22
2022-11-24T04:41:03.544Z,95939.19
2022-11-24T04:43:37.700Z,95940.84
2022-11-24T04:46:11.911Z,95934.16
2022-11-24T04:48:40.421Z,95939.56
2022-11-24T04:51:12.360Z,95941.56
2022-11-24T04:53:40.781Z,95949.41
2022-11-24T04:56:09.547Z,95948.38
2022-11-24T04:58:38.219Z,95946.28
2022-11-24T05:01:08.605Z,95945.31
2022-11-24T05:03:37.130Z,95960.34
2022-11-24T05:06:06.962Z,95961.72
2022-11-24T05:08:36.753Z,95963.84
2022-11-24T05:11:05.043Z,95959.84
2022-11-24T05:13:34.237Z,95950.03
2022-11-24T05:16:03.167Z,95963.25
2022-11-24T05:18:31.599Z,95964.75
2022-11-24T05:21:00.474Z,95972.59
2022-11-24T05:23:28.870Z,95972.38
2022-11-24T05:26:02.321Z,95979.63
2022-11-24T05:28:30.781Z,95979.25
2022-11-24T05:31:00.950Z,95989.94
2022-11-24T05:33:30.788Z,95982.69
2022-11-24T05:36:02.103Z,95987.63
2022-11-24T05:38:31.850Z,95989.84
2022-11-24T05:41:05.863Z,95992.78
2022-11-24T05:43:35.248Z,95990.91
2022-11-24T05:46:03.649Z,95991.13
2022-11-24T05:48:32.964Z,95999.22
2022-11-24T05:51:06.466Z,96003.53
2022-11-24T05:53:38.325Z,96004.59
2022-11-24T05:56:09.356Z,96012.69
2022-11-24T05:58:37.742Z,96010.19
2022-11-24T06:01:08.260Z,96019.53
2022-11-24T06:03:36.743Z,96022.25
2022-11-24T06:06:05.461Z,96038.38
2022-11-24T06:08:34.573Z,96029.34
2022-11-24T06:11:17.737Z,96032.03
2022-11-24T06:13:49.372Z,96044.06
2022-11-24T06:16:17.988Z,96045.25
2022-11-24T06:18:46.853Z,96046.94
2022-11-24T06:21:17.134Z,96047.34
2022-11-24T06:23:49.158Z,96064.56
2022-11-24T06:26:17.857Z,96070.75
2022-11-24T06:28:48.490Z,96067.84
2022-11-24T06:31:16.947Z,96066.59
2022-11-24T06:33:45.396Z,96061.56
2022-11-24T06:36:15.795Z,96067.34
2022-11-24T06:38:44.244Z,96067.34
2022-11-24T06:41:15.320Z,96074.34
2022-11-24T06:43:43.867Z,96080.56
2022-11-24T06:46:14.767Z,96084.31
2022-11-24T06:48:43.298Z,96079.75
2022-11-24T06:51:14.466Z,96070.38
2022-11-24T06:53:42.916Z,96074.50
2022-11-24T06:56:16.532Z,96081.72
2022-11-24T06:58:48.149Z,96078.03
2022-11-24T07:01:19.978Z,96078.38
2022-11-24T07:03:49.662Z,96086.69
2022-11-24T07:06:18.592Z,96089.16
2022-11-24T07:08:48.126Z,96080.00
2022-11-24T07:11:18.522Z,96080.84
2022-11-24T07:13:47.982Z,96082.41
2022-11-24T07:16:20.610Z,96082.78
2022-11-24T07:18:51.187Z,96091.00
2022-11-24T07:21:20.649Z,96084.34
2022-11-24T07:23:49.342Z,96093.81
2022-11-24T07:26:19.424Z,96098.16
2022-11-24T07:28:48.184Z,96097.13
2022-11-24T07:31:19.373Z,96102.06
2022-11-24T07:33:49.573Z,96101.81
2022-11-24T07:36:18.128Z,96100.41
2022-11-24T07:38:47.877Z,96099.94
2022-11-24T07:41:18.232Z,96105.91
2022-11-24T07:43:48.147Z,96092.78
2022-11-24T07:46:20.025Z,96100.41
2022-11-24T07:48:49.242Z,96109.66
2022-11-24T07:51:18.011Z,96095.94
2022-11-24T07:53:47.127Z,96104.50
2022-11-24T07:56:15.690Z,96104.28
2022-11-24T07:58:49.738Z,96104.44
2022-11-24T08:01:21.888Z,96106.47
2022-11-24T08:03:50.436Z,96104.84
2022-11-24T08:06:27.372Z,96108.03
2022-11-24T08:08:59.864Z,96113.81
2022-11-24T08:11:28.405Z,96105.44
2022-11-24T08:13:57.057Z,96119.59
2022-11-24T08:16:26.949Z,96115.53
2022-11-24T08:18:57.078Z,96113.88
2022-11-24T08:21:26.140Z,96123.84
2022-11-24T08:23:56.318Z,96122.31
2022-11-24T08:26:25.720Z,96132.06
2022-11-24T08:28:57.538Z,96126.91
2022-11-24T08:31:33.325Z,96135.84
2022-11-24T08:34:05.423Z,96127.59
2022-11-24T08:36:34.564Z,96119.97
2022-11-24T08:39:03.756Z,96129.34
2022-11-24T08:41:33.696Z,96131.63
2022-11-24T08:44:02.120Z,96125.41
2022-11-24T08:46:32.435Z,96122.28
2022-11-24T08:49:00.947Z,96123.22
2022-11-24T08:51:30.429Z,96119.81
2022-11-24T08:54:01.191Z,96111.84
2022-11-24T08:56:32.542Z,96121.59
2022-11-24T08:59:02.075Z,96127.84
2022-11-24T09:01:32.269Z,96119.63
2022-11-24T09:04:00.841Z,96131.00
2022-11-24T09:06:31.313Z,96117.16
2022-11-24T09:09:00.376Z,96131.34
2022-11-24T09:11:29.186Z,96108.03
2022-11-24T09:13:57.815Z,96121.72
2022-11-24T09:16:28.493Z,96116.47
2022-11-24T09:19:00.484Z,96119.25
2022-11-24T09:21:29.577Z,96119.94
2022-11-24T09:23:58.270Z,96121.38
2022-11-24T09:26:28.653Z,96122.53
2022-11-24T09:28:59.668Z,96128.88
2022-11-24T09:31:30.589Z,96130.75
2022-11-24T09:34:00.922Z,96133.28
2022-11-24T09:36:30.272Z,96125.09
2022-11-24T09:38:59.207Z,96124.13
2022-11-24T09:41:58.823Z,96129.72
2022-11-24T09:44:46.858Z,96127.44
2022-11-24T09:47:25.442Z,96136.22
2022-11-24T09:50:01.453Z,96125.59
2022-11-24T09:52:40.454Z,96126.56
2022-11-24T09:55:23.682Z,96130.25
2022-11-24T09:58:00.721Z,96125.66
2022-11-24T10:00:30.097Z,96125.00
2022-11-24T10:02:59.778Z,96129.09
2022-11-24T10:05:32.988Z,96129.88
2022-11-24T10:08:13.342Z,96144.56
2022-11-24T10:10:51.418Z,96140.31
2022-11-24T10:13:36.422Z,96128.50
2022-11-24T10:16:17.142Z,96134.34
2022-11-24T10:19:05.739Z,96140.16
2022-11-24T10:21:51.532Z,96108.34
2022-11-24T10:24:56.193Z,96142.53
2022-11-24T10:27:31.430Z,96128.84
2022-11-24T10:30:02.365Z,96138.56
2022-11-24T10:32:36.818Z,96134.81
2022-11-24T10:35:16.549Z,96138.34
2022-11-24T10:37:56.216Z,96140.06
2022-11-24T10:43:27.618Z,96141.53
2022-11-24T10:46:01.134Z,96135.91
2022-11-24T10:48:40.433Z,96148.50
2022-11-24T10:51:47.532Z,96124.03
2022-11-24T10:54:20.110Z,96157.06
2022-11-24T10:56:51.534Z,96152.63
2022-11-24T10:59:29.665Z,96157.91
2022-11-24T11:01:58.190Z,96155.09
2022-11-24T11:04:29.782Z,96153.94
2022-11-24T11:07:16.040Z,96162.28
2022-11-24T11:09:46.388Z,96159.72
2022-11-24T11:15:26.732Z,96184.06
2022-11-24T11:17:59.169Z,96177.38
2022-11-24T11:20:33.275Z,96197.19
2022-11-24T11:23:05.985Z,96182.63
2022-11-24T11:25:38.565Z,96175.56
2022-11-24T11:28:20.787Z,96186.94
2022-11-24T11:31:18.049Z,96185.88
2022-11-24T11:34:07.394Z,96173.47
2022-11-24T11:36:43.721Z,96178.84
2022-11-24T11:39:24.525Z,96183.22
2022-11-24T11:42:03.997Z,96171.38
2022-11-24T11:44:39.803Z,96185.78
2022-11-24T11:47:18.828Z,96181.78
2022-11-24T11:49:50.103Z,96172.63
2022-11-24T11:52:44.978Z,96174.19
2022-11-24T11:55:49.472Z,96170.19
2022-11-24T11:58:52.036Z,96174.06
2022-11-24T12:01:56.946Z,96171.75
2022-11-24T12:04:40.663Z,96176.31
2022-11-24T12:07:45.652Z,96187.75
2022-11-24T12:10:24.342Z,96188.06
2022-11-24T12:13:32.354Z,96179.94
2022-11-24T12:16:09.750Z,96183.97
2022-11-24T12:19:00.488Z,96175.88
2022-11-24T12:21:36.955Z,96190.84
2022-11-24T12:24:12.222Z,96189.78
2022-11-24T12:26:46.227Z,96184.88
2022-11-24T12:29:36.354Z,96206.59
2022-11-24T12:32:20.789Z,96197.56
2022-11-24T12:34:56.410Z,96202.84
2022-11-24T12:37:44.774Z,96202.97
2022-11-24T12:40:16.821Z,96206.22
2022-11-24T12:42:56.179Z,96215.88
2022-11-24T12:45:34.349Z,96212.94
2022-11-24T12:48:34.273Z,96220.94
2022-11-24T12:51:05.715Z,96216.47
2022-11-24T12:53:36.140Z,96215.16
2022-11-24T12:56:08.969Z,96226.69
2022-11-24T12:58:42.840Z,96212.47
2022-11-24T13:01:19.106Z,96216.47
2022-11-24T13:04:03.076Z,96219.50
2022-11-24T13:06:48.837Z,96215.16
2022-11-24T13:09:18.825Z,96212.47
2022-11-24T13:11:50.115Z,96211.66
2022-11-24T13:14:23.455Z,96218.94
2022-11-24T13:19:53.486Z,96224.09
2022-11-24T13:22:27.473Z,96226.22
2022-11-24T13:25:14.638Z,96233.72
2022-11-24T13:27:48.764Z,96230.44
2022-11-24T13:30:59.394Z,96230.09
2022-11-24T13:33:39.236Z,96240.84
2022-11-24T13:36:37.761Z,96242.63
2022-11-24T13:39:21.336Z,96239.41
2022-11-24T13:42:09.169Z,96239.66
2022-11-24T13:44:52.345Z,96244.72
2022-11-24T13:47:35.855Z,96248.22
2022-11-24T13:50:08.753Z,96251.38
2022-11-24T13:53:01.306Z,96257.00
2022-11-24T13:55:35.546Z,96256.66
2022-11-24T13:58:26.869Z,96255.97
2022-11-24T14:01:04.458Z,96258.44
2022-11-24T14:03:36.328Z,96252.81
2022-11-24T14:06:05.066Z,96252.47
2022-11-24T14:08:37.309Z,96258.69
2022-11-24T14:11:14.383Z,96261.63
2022-11-24T14:13:43.880Z,96248.56
2022-11-24T14:16:18.012Z,96270.97
2022-11-24T14:18:48.194Z,96261.91
2022-11-24T14:21:29.801Z,96264.38
2022-11-24T14:24:00.579Z,96268.38
2022-11-24T14:26:34.458Z,96272.59
2022-11-24T14:29:08.731Z,96256.94
2022-11-24T14:31:37.270Z,96278.75
2022-11-24T14:34:16.390Z,96269.94
2022-11-24T14:36:45.068Z,96276.88
2022-11-24T14:39:15.045Z,96273.75
2022-11-24T14:41:53.802Z,96273.28
2022-11-24T14:44:25.137Z,96278.44
2022-11-24T14:47:04.106Z,96280.50
2022-11-24T14:49:34.263Z,96264.22
2022-11-24T14:52:09.863Z,96272.22
2022-11-24T14:54:45.690Z,96284.41
2022-11-24T14:57:25.684Z,96285.31
2022-11-24T15:00:17.212Z,96290.72
2022-11-24T15:02:49.625Z,96292.25
2022-11-24T15:05:20.149Z,96302.56
2022-11-24T15:07:50.939Z,96309.41
2022-11-24T15:10:33.605Z,96308.66
2022-11-24T15:13:07.532Z,96311.56
2022-11-24T15:15:38.057Z,96311.56
2022-11-24T15:18:08.391Z,96316.38
2022-11-24T15:20:41.559Z,96324.00
2022-11-24T15:23:25.013Z,96317.59
2022-11-24T15:25:55.417Z,96320.13
2022-11-24T15:28:26.762Z,96316.19
2022-11-24T15:30:57.282Z,96308.41
2022-11-24T15:33:26.171Z,96317.72
2022-11-24T15:35:54.874Z,96326.63
2022-11-24T15:38:24.970Z,96332.84
2022-11-24T15:40:56.021Z,96340.56
2022-11-24T15:43:30.484Z,96342.91
2022-11-24T15:46:00.321Z,96337.56
2022-11-24T15:48:28.806Z,96339.91
2022-11-24T15:50:59.837Z,96355.47
2022-11-24T15:53:33.244Z,96356.53
2022-11-24T15:56:03.674Z,96357.00
2022-11-24T15:58:33.391Z,96369.41
2022-11-24T16:01:02.928Z,96373.16
2022-11-24T16:03:47.068Z,96372.53
2022-11-24T16:06:24.151Z,96379.59
2022-11-24T16:08:54.903Z,96378.75
2022-11-24T16:11:24.084Z,96374.88
2022-11-24T16:13:54.675Z,96380.03
2022-11-24T16:16:25.349Z,96384.16
2022-11-24T16:18:54.225Z,96384.59
2022-11-24T16:21:23.254Z,96389.84
2022-11-24T16:23:52.374Z,96390.28
2022-11-24T16:26:20.750Z,96398.22
2022-11-24T16:28:50.001Z,96373.50
2022-11-24T16:31:20.085Z,96398.81
2022-11-24T16:33:49.458Z,96388.53
2022-11-24T16:36:18.276Z,96395.00
2022-11-24T16:38:46.722Z,96401.44
2022-11-24T16:41:16.094Z,96399.78
2022-11-24T16:43:44.673Z,96404.13
2022-11-24T16:46:20.716Z,96401.66
2022-11-24T16:48:51.096Z,96409.50
2022-11-24T16:51:21.156Z,96401.44
2022-11-24T16:53:56.566Z,96389.06
2022-11-24T16:56:25.857Z,96410.09
2022-11-24T16:58:55.093Z,96410.34
2022-11-24T17:01:25.890Z,96411.16
2022-11-24T17:03:55.401Z,96419.47
2022-11-24T17:06:23.809Z,96424.03
2022-11-24T17:08:53.558Z,96418.25
2022-11-24T17:11:24.359Z,96424.31
2022-11-24T17:13:54.335Z,96427.06
2022-11-24T17:16:25.722Z,96420.69
2022-11-24T17:18:55.696Z,96420.91
2022-11-24T17:21:25.693Z,96419.69
2022-11-24T17:23:56.517Z,96423.44
2022-11-24T17:26:25.196Z,96412.69
2022-11-24T17:28:54.618Z,96420.72
2022-11-24T17:31:27.190Z,96423.19
2022-11-24T17:33:58.408Z,96420.97
2022-11-24T17:36:27.638Z,96428.16
2022-11-24T17:38:56.733Z,96436.25
2022-11-24T17:41:25.140Z,96431.88
2022-11-24T17:43:57.051Z,96430.63
2022-11-24T17:46:28.091Z,96429.38
2022-11-24T17:48:57.031Z,96432.28
2022-11-24T17:51:27.449Z,96417.00
2022-11-24T17:53:57.734Z,96437.03
2022-11-24T17:56:27.628Z,96433.28
2022-11-24T17:58:58.491Z,96433.06
2022-11-24T18:01:30.675Z,96430.13
2022-11-24T18:03:59.445Z,96433.66
2022-11-24T18:06:29.126Z,96438.22
2022-11-24T18:08:59.152Z,96433.66
2022-11-24T18:11:31.726Z,96431.00
2022-11-24T18:14:02.577Z,96437.16
2022-11-24T18:16:34.400Z,96431.72
2022-11-24T18:19:09.351Z,96437.34
2022-11-24T18:21:38.863Z,96435.09
2022-11-24T18:24:08.459Z,96440.13
2022-11-24T18:26:37.379Z,96432.66
2022-11-24T18:29:06.371Z,96441.41
2022-11-24T18:31:37.771Z,96443.09
2022-11-24T18:34:07.338Z,96443.28
2022-11-24T18:36:37.408Z,96439.38
2022-11-24T18:39:07.535Z,96445.16
2022-11-24T18:41:36.521Z,96442.66
2022-11-24T18:44:07.990Z,96439.16
2022-11-24T18:46:39.514Z,96446.13
2022-11-24T18:49:08.291Z,96451.69
2022-11-24T18:51:37.703Z,96447.28
2022-11-24T18:54:06.138Z,96447.06
2022-11-24T18:56:35.362Z,96448.50
2022-11-24T18:59:03.788Z,96444.16
2022-11-24T19:01:33.054Z,96440.63
2022-11-24T19:04:03.363Z,96441.28
2022-11-24T19:06:33.764Z,96446.84
2022-11-24T19:09:04.497Z,96448.25
2022-11-24T19:11:35.656Z,96458.81
2022-11-24T19:14:05.734Z,96448.03
2022-11-24T19:16:35.088Z,96458.97
2022-11-24T19:19:05.402Z,96455.25
2022-11-24T19:21:37.626Z,96461.84
2022-11-24T19:24:07.427Z,96453.38
2022-11-24T19:26:36.318Z,96459.56
2022-11-24T19:29:06.251Z,96465.44
2022-11-24T19:31:35.091Z,96457.78
2022-11-24T19:34:06.469Z,96455.28
2022-11-24T19:36:35.010Z,96449.38
2022-11-24T19:39:05.550Z,96447.19
2022-11-24T19:41:35.054Z,96466.13
2022-11-24T19:44:03.846Z,96461.56
2022-11-24T19:46:33.375Z,96466.75
2022-11-24T19:49:04.369Z,96464.06
2022-11-24T19:51:35.929Z,96461.81
2022-11-24T19:54:06.275Z,96467.66
2022-11-24T19:56:37.058Z,96460.22
2022-11-24T19:59:07.637Z,96460.22
2022-11-24T20:01:38.101Z,96450.31
2022-11-24T20:04:09.004Z,96451.97
2022-11-24T20:06:41.329Z,96461.53
2022-11-24T20:09:13.603Z,96464.06
2022-11-24T20:11:42.948Z,96454.16
2022-11-24T20:14:12.945Z,96457.69
2022-11-24T20:16:42.567Z,96452.13
2022-11-24T20:19:13.375Z,96459.81
2022-11-24T20:21:46.159Z,96464.63
2022-11-24T20:24:16.909Z,96455.06
2022-11-24T20:26:48.612Z,96460.44
2022-11-24T20:29:17.598Z,96464.78
2022-11-24T20:31:47.381Z,96464.56
2022-11-24T20:34:16.350Z,96471.41
2022-11-24T20:36:47.593Z,96467.56
2022-11-24T20:39:18.611Z,96464.94
2022-11-24T20:41:48.387Z,96467.88
2022-11-24T20:44:19.571Z,96467.72
2022-11-24T20:46:48.530Z,96467.09
2022-11-24T20:49:19.683Z,96461.13
2022-11-24T20:51:49.544Z,96471.72
2022-11-24T20:54:19.116Z,96469.06
2022-11-24T20:56:49.259Z,96470.72
2022-11-24T20:59:21.309Z,96469.94
2022-11-24T21:01:50.952Z,96467.31
2022-11-24T21:04:22.494Z,96480.16
2022-11-24T21:06:52.858Z,96472.09
2022-11-24T21:09:21.301Z,96466.50
2022-11-24T21:11:49.968Z,96471.72
2022-11-24T21:14:18.917Z,96474.66
2022-11-24T21:16:47.318Z,96475.50
2022-11-24T21:19:18.633Z,96467.69
2022-11-24T21:21:48.133Z,96476.16
2022-11-24T21:24:22.031Z,96477.81
2022-11-24T21:26:52.571Z,96467.72
2022-11-24T21:29:23.913Z,96472.69
2022-11-24T21:31:53.124Z,96466.91
2022-11-24T21:34:21.577Z,96462.97
2022-11-24T21:36:50.761Z,96475.81
2022-11-24T21:39:20.600Z,96473.13
2022-11-24T21:41:49.540Z,96466.50
2022-11-24T21:44:18.443Z,96474.56
2022-11-24T21:46:52.648Z,96471.25
2022-11-24T21:49:24.614Z,96472.31
2022-11-24T21:51:56.251Z,96466.94
2022-11-24T21:54:26.090Z,96465.09
2022-11-24T21:56:55.836Z,96464.88
2022-11-24T21:59:24.309Z,96479.16
2022-11-24T22:01:53.544Z,96474.19
2022-11-24T22:04:22.437Z,96469.66
2022-11-24T22:06:53.154Z,96474.81
2022-11-24T22:09:22.082Z,96471.50
2022-11-24T22:11:52.860Z,96476.50
2022-11-24T22:14:21.528Z,96476.91
2022-11-24T22:16:50.538Z,96466.97
2022-11-24T22:19:19.078Z,96460.78
2022-11-24T22:21:48.749Z,96461.78
2022-11-24T22:24:17.164Z,96463.66
2022-11-24T22:26:46.809Z,96459.94
2022-11-24T22:29:16.526Z,96459.75
2022-11-24T22:31:45.424Z,96461.19
2022-11-24T22:34:13.837Z,96469.03
2022-11-24T22:36:43.349Z,96460.16
2022-11-24T22:39:12.886Z,96459.50
2022-11-24T22:41:42.534Z,96466.31
2022-11-24T22:44:10.913Z,96476.03
2022-11-24T22:46:41.309Z,96466.13
2022-11-24T22:49:11.531Z,96460.97
2022-11-24T22:51:40.262Z,96462.63
2022-11-24T22:54:13.032Z,96466.53
2022-11-24T22:56:41.412Z,96463.44
2022-11-24T22:59:10.459Z,96471.91
2022-11-24T23:01:40.219Z,96478.28
2022-11-24T23:04:08.741Z,96475.22
2022-11-24T23:06:37.859Z,96462.81
2022-11-24T23:09:07.226Z,96462.00
2022-11-24T23:11:38.787Z,96454.34
2022-11-24T23:14:09.277Z,96467.38
2022-11-24T23:16:38.597Z,96456.84
2022-11-24T23:19:10.110Z,96456.41
2022-11-24T23:21:39.372Z,96454.75
2022-11-24T23:24:10.160Z,96457.00
2022-11-24T23:26:40.353Z,96443.38
2022-11-24T23:29:11.115Z,96448.09
2022-11-24T23:31:40.717Z,96459.06
2022-11-24T23:34:11.419Z,96457.63
2022-11-24T23:36:40.223Z,96461.94
2022-11-24T23:39:12.454Z,96461.50
2022-11-24T23:41:42.125Z,96452.78
2022-11-24T23:44:10.528Z,96458.78
2022-11-24T23:46:39.337Z,96457.31
2022-11-24T23:49:07.731Z,96462.47
2022-11-24T23:51:42.002Z,96465.31
2022-11-24T23:54:11.200Z,96468.75
2022-11-24T23:56:40.104Z,96465.88
2022-11-24T23:59:12.383Z,96471.69
